createdAt,value
2018-12-08T00:04:52.610Z,9.63
2018-12-08T00:20:52.683Z,9.40
2018-12-08T00:25:57.225Z,9.83
2018-12-08T00:31:12.152Z,8.50
2018-12-08T00:36:16.024Z,9.33
2018-12-08T00:41:20.250Z,12.47
2018-12-08T00:46:24.194Z,10.33
2018-12-08T00:51:28.643Z,9.83
2018-12-08T00:56:33.108Z,12.60
2018-12-08T01:01:37.969Z,11.20
2018-12-08T01:06:41.933Z,9.73
2018-12-08T01:11:46.730Z,11.43
2018-12-08T01:16:50.284Z,9.83
2018-12-08T01:21:53.836Z,11.33
2018-12-08T01:26:57.476Z,10.17
2018-12-08T01:32:01.159Z,10.30
2018-12-08T01:37:04.878Z,9.93
2018-12-08T01:42:09.140Z,8.70
2018-12-08T01:47:18.935Z,7.77
2018-12-08T01:52:22.886Z,7.67
2018-12-08T01:57:26.828Z,10.43
2018-12-08T02:02:30.930Z,12.97
2018-12-08T02:07:35.758Z,9.97
2018-12-08T02:12:39.879Z,9.50
2018-12-08T02:17:43.890Z,7.73
2018-12-08T02:22:47.726Z,11.43
2018-12-08T02:27:51.949Z,11.10
2018-12-08T02:32:55.541Z,7.47
2018-12-08T02:37:59.116Z,11.80
2018-12-08T02:43:03.802Z,12.13
2018-12-08T02:48:07.425Z,9.77
2018-12-08T02:53:11.056Z,9.63
2018-12-08T02:58:16.040Z,8.10
2018-12-08T03:03:19.952Z,9.27
2018-12-08T03:08:24.132Z,8.97
2018-12-08T03:13:28.535Z,6.47
2018-12-08T03:18:32.665Z,7.17
2018-12-08T03:23:36.545Z,8.23
2018-12-08T03:28:40.713Z,10.67
2018-12-08T03:33:44.545Z,5.73
2018-12-08T03:49:44.512Z,10.37
2018-12-08T03:54:48.585Z,11.47
2018-12-08T03:59:52.236Z,8.37
2018-12-08T04:04:56.209Z,10.57
2018-12-08T04:10:00.777Z,7.57
2018-12-08T04:15:05.897Z,11.37
2018-12-08T04:20:10.467Z,8.97
2018-12-08T04:25:15.197Z,10.63
2018-12-08T04:30:18.921Z,12.33
2018-12-08T04:35:23.251Z,8.23
2018-12-08T04:40:27.263Z,7.23
2018-12-08T04:45:30.971Z,7.00
2018-12-08T04:50:35.368Z,9.37
2018-12-08T04:55:38.952Z,17.60
2018-12-08T05:00:42.840Z,8.90
2018-12-08T05:05:46.361Z,8.53
2018-12-08T05:10:50.032Z,13.20
2018-12-08T05:15:54.264Z,10.13
2018-12-08T05:20:58.065Z,12.93
2018-12-08T05:26:01.603Z,11.90
2018-12-08T05:31:05.850Z,7.73
2018-12-08T05:36:10.574Z,8.47
2018-12-08T05:41:24.375Z,6.37
2018-12-08T05:46:28.718Z,8.00
2018-12-08T05:57:10.085Z,9.07
2018-12-08T06:02:14.353Z,6.80
2018-12-08T06:07:31.290Z,6.77
2018-12-08T06:18:09.339Z,8.77
2018-12-08T06:23:15.063Z,5.90
2018-12-08T06:28:28.131Z,9.73
2018-12-08T06:44:47.676Z,7.83
2018-12-08T07:17:11.071Z,4.30
2018-12-08T07:22:15.031Z,7.07
2018-12-08T07:27:19.905Z,7.33
2018-12-08T07:32:24.595Z,5.43
2018-12-08T07:37:28.440Z,5.67
2018-12-08T07:42:32.024Z,5.63
2018-12-08T07:47:35.643Z,6.97
2018-12-08T07:52:39.246Z,5.10
2018-12-08T07:57:42.894Z,7.40
2018-12-08T08:02:47.566Z,6.47
2018-12-08T08:07:51.147Z,9.27
2018-12-08T08:12:54.910Z,6.63
2018-12-08T08:17:58.493Z,7.13
2018-12-08T08:23:16.208Z,6.77
2018-12-08T08:28:19.898Z,7.43
2018-12-08T08:33:23.421Z,6.23
2018-12-08T08:38:28.402Z,3.57
2018-12-08T08:48:59.971Z,6.00
2018-12-08T08:54:04.525Z,6.80
2018-12-08T08:59:08.345Z,6.67
2018-12-08T09:04:13.236Z,10.00
2018-12-08T09:09:17.733Z,10.97
2018-12-08T09:14:21.646Z,10.03
2018-12-08T09:19:25.541Z,7.67
2018-12-08T09:24:29.896Z,10.07
2018-12-08T09:29:34.036Z,10.17
2018-12-08T09:34:38.702Z,8.57
2018-12-08T09:39:42.980Z,9.90
2018-12-08T09:44:47.304Z,11.80
2018-12-08T09:49:51.611Z,9.80
2018-12-08T09:54:55.843Z,10.27
2018-12-08T10:00:00.713Z,9.13
2018-12-08T10:05:04.543Z,9.73
2018-12-08T10:10:08.658Z,11.67
2018-12-08T10:15:12.280Z,9.17
2018-12-08T10:20:16.332Z,10.77
2018-12-08T10:25:19.952Z,9.77
2018-12-08T10:30:23.876Z,7.33
2018-12-08T10:35:27.679Z,9.10
2018-12-08T10:40:31.331Z,8.23
2018-12-08T10:45:35.600Z,11.17
2018-12-08T10:50:39.203Z,11.33
2018-12-08T10:55:42.899Z,17.43
2018-12-08T11:00:51.737Z,14.60
2018-12-08T11:05:55.367Z,9.77
2018-12-08T11:10:59.336Z,10.87
2018-12-08T11:16:02.934Z,15.67
2018-12-08T11:21:07.936Z,14.93
2018-12-08T11:26:11.863Z,14.77
2018-12-08T11:31:15.411Z,14.20
2018-12-08T11:36:19.840Z,13.47
2018-12-08T11:41:23.356Z,14.00
2018-12-08T11:46:27.893Z,16.27
2018-12-08T11:51:32.608Z,15.87
2018-12-08T11:56:36.273Z,12.87
2018-12-08T12:01:39.857Z,13.37
2018-12-08T12:06:44.216Z,15.00
2018-12-08T12:11:47.765Z,12.87
2018-12-08T12:16:51.284Z,12.57
2018-12-08T12:21:54.807Z,13.37
2018-12-08T12:26:58.398Z,10.73
2018-12-08T12:32:05.025Z,13.70
2018-12-08T12:37:09.167Z,17.07
2018-12-08T12:42:13.409Z,16.03
2018-12-08T13:03:40.643Z,12.90
2018-12-08T13:08:44.599Z,15.77
2018-12-08T13:13:49.317Z,16.30
2018-12-08T13:18:53.531Z,12.10
2018-12-08T13:23:57.040Z,15.20
2018-12-08T13:29:01.829Z,13.27
2018-12-08T13:34:16.686Z,15.47
2018-12-08T13:39:20.529Z,10.87
2018-12-08T13:44:35.776Z,14.17
2018-12-08T13:49:39.637Z,15.50
2018-12-08T13:54:52.395Z,15.67
2018-12-08T13:59:57.690Z,13.27
2018-12-08T14:05:01.539Z,14.83
2018-12-08T14:10:07.040Z,11.70
2018-12-08T14:15:10.863Z,10.23
2018-12-08T14:20:23.755Z,9.13
2018-12-08T14:30:55.444Z,13.17
2018-12-08T14:35:59.717Z,11.70
2018-12-08T14:41:03.275Z,10.17
2018-12-08T14:46:07.155Z,11.43
2018-12-08T14:51:11.190Z,13.43
2018-12-08T14:56:15.615Z,14.17
2018-12-08T15:01:19.237Z,11.10
2018-12-08T15:06:23.445Z,10.80
2018-12-08T15:16:55.062Z,10.47
2018-12-08T15:21:58.674Z,10.53
2018-12-08T15:27:03.207Z,10.53
2018-12-08T15:32:07.050Z,8.40
2018-12-08T15:37:11.344Z,10.73
2018-12-08T15:42:15.004Z,12.63
2018-12-08T15:47:18.643Z,10.10
2018-12-08T15:52:22.994Z,13.13
2018-12-08T15:57:27.987Z,8.33
2018-12-08T16:02:32.107Z,12.00
2018-12-08T16:07:36.387Z,10.40
2018-12-08T16:12:39.987Z,12.97
2018-12-08T16:17:57.982Z,14.50
2018-12-08T16:23:01.514Z,13.30
2018-12-08T16:28:09.714Z,16.27
2018-12-08T16:33:13.970Z,13.73
2018-12-08T16:38:17.927Z,12.57
2018-12-08T16:43:22.201Z,10.23
2018-12-08T16:48:26.402Z,10.87
2018-12-08T16:59:02.709Z,14.00
2018-12-08T17:04:06.436Z,16.53
2018-12-08T17:09:11.095Z,13.97
2018-12-08T17:14:14.725Z,19.07
2018-12-08T17:24:56.998Z,21.23
2018-12-08T17:30:01.012Z,19.23
2018-12-08T17:35:05.960Z,18.83
2018-12-08T17:40:10.153Z,21.03
2018-12-08T17:45:13.893Z,14.47
2018-12-08T17:50:17.730Z,22.90
2018-12-08T17:55:23.082Z,17.20
2018-12-08T18:00:26.679Z,18.47
2018-12-08T18:05:30.801Z,20.73
2018-12-08T18:10:34.437Z,21.73
2018-12-08T18:26:39.526Z,12.03
2018-12-08T18:31:43.167Z,11.33
2018-12-08T18:36:46.775Z,5.73
2018-12-08T18:41:50.349Z,8.37
2018-12-08T18:46:57.603Z,7.07
2018-12-08T18:52:01.384Z,6.70
2018-12-08T19:02:41.652Z,5.63
2018-12-08T19:07:46.031Z,5.30
2018-12-08T19:12:52.375Z,6.43
2018-12-08T19:17:55.971Z,5.47
2018-12-08T19:23:02.154Z,4.83
2018-12-08T19:28:20.018Z,4.00
2018-12-08T19:33:24.281Z,2.70
2018-12-08T19:43:55.824Z,3.73
2018-12-08T19:49:05.595Z,2.50
2018-12-08T20:32:24.452Z,2.70
2018-12-08T20:37:29.028Z,2.30
2018-12-08T20:42:33.064Z,2.57
2018-12-08T20:47:36.772Z,1.83
2018-12-08T20:52:40.669Z,2.03
2018-12-08T20:57:45.019Z,1.40
2018-12-08T21:02:49.279Z,1.50
2018-12-08T21:07:53.832Z,1.60
2018-12-08T21:12:58.919Z,1.23
2018-12-08T21:18:02.848Z,0.73
2018-12-08T21:23:08.316Z,1.37
2018-12-08T21:28:12.021Z,1.10
2018-12-08T21:33:16.325Z,1.27
2018-12-08T21:38:20.599Z,1.40
2018-12-08T21:43:25.065Z,1.83
2018-12-08T21:48:29.085Z,1.80
2018-12-08T21:53:35.454Z,1.70
2018-12-08T21:58:40.287Z,1.47
2018-12-08T22:03:44.335Z,3.07
2018-12-08T22:08:48.012Z,5.77
2018-12-08T22:13:51.740Z,6.73
2018-12-08T22:29:53.414Z,8.20
2018-12-08T22:34:57.529Z,7.07
2018-12-08T22:40:01.488Z,9.57
2018-12-08T22:45:06.757Z,13.23
2018-12-08T22:50:10.774Z,11.27
2018-12-08T22:55:14.673Z,10.93
2018-12-08T23:00:29.673Z,11.27
2018-12-08T23:05:33.237Z,11.53
2018-12-08T23:10:37.185Z,12.17
2018-12-08T23:15:40.788Z,14.50
2018-12-08T23:20:44.336Z,12.20
2018-12-08T23:25:47.949Z,13.17
2018-12-08T23:30:52.382Z,13.77
2018-12-08T23:35:56.542Z,8.53
2018-12-08T23:41:00.466Z,14.03
2018-12-08T23:46:04.176Z,10.53
2018-12-08T23:51:07.887Z,10.53
2018-12-08T23:56:12.229Z,8.60
